Time;durP1;ratioP1;P1;durP2;ratioP2;P2;SDS_P1;SDS_P2;PMS_P1;PMS_P2;Temp;Humidity;BMP_temperature;BMP_pressure;BME280_temperature;BME280_humidity;BME280_pressure;Samples;Min_cycle;Max_cycle;Signal;HPM_P1;HPM_P2
2022/04/08 00:01:26;;;;;;;4.63;2.07;;;;;;;;;;5034693;28;20745;-83
2022/04/08 00:03:54;;;;;;;9.63;1.97;;;;;;;;;;5035370;28;20206;-82
2022/04/08 00:06:21;;;;;;;8.50;2.23;;;;;;;;;;5034581;28;20234;-82
2022/04/08 00:08:48;;;;;;;6.03;2.27;;;;;;;;;;5035408;28;20285;-82
2022/04/08 00:11:16;;;;;;;4.57;2.03;;;;;;;;;;5034224;28;20241;-82
2022/04/08 00:13:44;;;;;;;2.70;2.17;;;;;;;;;;5034159;28;20202;-83
2022/04/08 00:16:11;;;;;;;5.17;2.37;;;;;;;;;;5033983;28;20242;-82
2022/04/08 00:18:40;;;;;;;8.73;2.27;;;;;;;;;;5035016;28;20214;-82
2022/04/08 00:21:07;;;;;;;5.47;2.10;;;;;;;;;;5033914;28;20246;-82
2022/04/08 00:23:34;;;;;;;4.70;1.67;;;;;;;;;;5034898;28;20206;-82
2022/04/08 00:26:01;;;;;;;6.47;2.30;;;;;;;;;;5034013;28;20698;-82
2022/04/08 00:28:28;;;;;;;5.27;3.00;;;;;;;;;;5034110;28;20211;-82
2022/04/08 00:30:57;;;;;;;8.17;1.90;;;;;;;;;;5033923;28;20234;-82
2022/04/08 00:33:24;;;;;;;7.27;2.43;;;;;;;;;;5034439;28;20607;-82
2022/04/08 00:35:51;;;;;;;4.47;2.30;;;;;;;;;;5033660;28;20238;-82
2022/04/08 00:38:18;;;;;;;5.17;2.17;;;;;;;;;;5034866;28;20559;-83
2022/04/08 00:40:45;;;;;;;5.67;2.10;;;;;;;;;;5033885;28;20241;-82
2022/04/08 00:43:13;;;;;;;6.10;2.50;;;;;;;;;;5034082;28;20207;-82
2022/04/08 00:45:40;;;;;;;12.23;2.40;;;;;;;;;;5033256;28;20718;-82
2022/04/08 00:48:09;;;;;;;6.87;2.00;;;;;;;;;;5034037;28;20211;-82
2022/04/08 00:50:36;;;;;;;5.47;2.23;;;;;;;;;;5039875;28;20251;-82
2022/04/08 00:53:03;;;;;;;4.93;2.10;;;;;;;;;;5043483;28;20207;-82
2022/04/08 00:55:30;;;;;;;2.97;2.03;;;;;;;;;;5039250;28;20239;-81
2022/04/08 00:57:57;;;;;;;4.17;2.13;;;;;;;;;;5034480;28;20207;-82
2022/04/08 01:00:24;;;;;;;4.70;2.10;;;;;;;;;;5007779;28;20730;-81
2022/04/08 01:02:51;;;;;;;4.67;2.20;;;;;;;;;;5006680;28;20207;-82
2022/04/08 01:05:20;;;;;;;10.03;2.10;;;;;;;;;;4993939;28;20239;-82
2022/04/08 01:07:47;;;;;;;3.57;2.40;;;;;;;;;;5002369;28;20208;-81
2022/04/08 01:10:15;;;;;;;5.40;2.13;;;;;;;;;;5007666;28;20597;-81
2022/04/08 01:12:42;;;;;;;7.87;2.57;;;;;;;;;;5016305;28;20211;-82
2022/04/08 01:15:09;;;;;;;7.47;2.30;;;;;;;;;;5014415;28;20718;-82
2022/04/08 01:17:37;;;;;;;7.07;2.00;;;;;;;;;;5014331;28;20620;-82
2022/04/08 01:20:04;;;;;;;6.77;2.17;;;;;;;;;;5013263;28;20212;-84
2022/04/08 01:22:34;;;;;;;8.27;2.10;;;;;;;;;;5013664;28;20234;-83
2022/04/08 01:25:03;;;;;;;2.53;2.00;;;;;;;;;;5012934;28;20234;-83
2022/04/08 01:27:30;;;;;;;6.27;2.27;;;;;;;;;;5012830;28;20230;-82
2022/04/08 01:29:57;;;;;;;5.60;2.50;;;;;;;;;;5011783;28;20227;-82
2022/04/08 01:32:24;;;;;;;7.60;2.10;;;;;;;;;;5012742;28;20215;-83
2022/04/08 01:34:52;;;;;;;7.70;2.80;;;;;;;;;;5012049;28;20230;-83
2022/04/08 01:37:19;;;;;;;2.57;1.57;;;;;;;;;;5013018;28;20688;-83
2022/04/08 01:39:46;;;;;;;6.57;2.47;;;;;;;;;;5013002;28;20203;-83
2022/04/08 01:42:16;;;;;;;4.73;2.27;;;;;;;;;;5012331;28;20211;-83
2022/04/08 01:44:44;;;;;;;7.40;2.10;;;;;;;;;;5012344;28;20242;-83
2022/04/08 01:47:11;;;;;;;4.43;2.20;;;;;;;;;;5012383;28;20227;-82
2022/04/08 01:49:38;;;;;;;6.17;2.47;;;;;;;;;;5011867;28;20227;-83
2022/04/08 01:52:06;;;;;;;2.00;1.83;;;;;;;;;;5012700;28;20734;-83
2022/04/08 01:54:33;;;;;;;8.03;2.33;;;;;;;;;;5012583;28;20231;-82
2022/04/08 01:57:00;;;;;;;5.10;2.17;;;;;;;;;;5011916;28;20231;-83
2022/04/08 01:59:28;;;;;;;5.53;2.10;;;;;;;;;;5013656;28;20203;-83
2022/04/08 02:01:56;;;;;;;7.07;2.10;;;;;;;;;;5012416;28;20738;-82
2022/04/08 02:04:23;;;;;;;4.13;1.80;;;;;;;;;;5013823;28;20301;-82
2022/04/08 02:06:51;;;;;;;7.53;2.00;;;;;;;;;;5013917;28;20242;-82
2022/04/08 02:09:18;;;;;;;3.93;1.83;;;;;;;;;;5012136;28;20604;-82
2022/04/08 02:11:45;;;;;;;3.60;1.90;;;;;;;;;;5011563;28;20238;-83
2022/04/08 02:14:12;;;;;;;4.90;2.13;;;;;;;;;;5011960;28;20227;-83
2022/04/08 02:16:41;;;;;;;7.43;2.87;;;;;;;;;;5015009;28;20243;-83
2022/04/08 02:19:08;;;;;;;3.60;1.90;;;;;;;;;;5015106;28;20204;-81
2022/04/08 02:21:35;;;;;;;6.37;2.33;;;;;;;;;;5014731;28;20245;-81
2022/04/08 02:24:03;;;;;;;12.17;2.60;;;;;;;;;;4979605;28;1032222;-81
2022/04/08 02:26:30;;;;;;;7.03;2.40;;;;;;;;;;5016370;28;20246;-83
2022/04/08 02:28:57;;;;;;;6.10;2.30;;;;;;;;;;5016366;28;20207;-83
2022/04/08 02:31:24;;;;;;;5.27;2.13;;;;;;;;;;5015575;28;20254;-83
2022/04/08 02:33:53;;;;;;;4.77;2.03;;;;;;;;;;5017942;28;20211;-83
2022/04/08 02:36:20;;;;;;;6.27;2.73;;;;;;;;;;5017119;28;20243;-83
2022/04/08 02:38:47;;;;;;;6.60;2.37;;;;;;;;;;5018607;28;20214;-83
2022/04/08 02:41:14;;;;;;;8.83;2.20;;;;;;;;;;5016848;28;20239;-83
2022/04/08 02:43:41;;;;;;;4.57;2.80;;;;;;;;;;5016359;28;20694;-84
2022/04/08 02:46:08;;;;;;;4.07;2.07;;;;;;;;;;5015730;28;20231;-83
2022/04/08 02:48:35;;;;;;;4.53;2.33;;;;;;;;;;5016005;28;20211;-80
2022/04/08 02:51:03;;;;;;;11.20;2.77;;;;;;;;;;5016407;28;20243;-81
2022/04/08 02:53:30;;;;;;;6.67;2.07;;;;;;;;;;5024209;28;20207;-83
2022/04/08 02:55:57;;;;;;;4.73;1.90;;;;;;;;;;5020373;28;20235;-83
2022/04/08 02:58:24;;;;;;;7.77;2.60;;;;;;;;;;5035225;28;20218;-82
2022/04/08 03:00:51;;;;;;;6.33;2.20;;;;;;;;;;5038335;28;20211;-82
2022/04/08 03:03:18;;;;;;;12.10;2.43;;;;;;;;;;5022308;28;20207;-82
2022/04/08 03:05:45;;;;;;;6.73;2.70;;;;;;;;;;5017478;28;20259;-82
2022/04/08 03:08:14;;;;;;;3.87;2.03;;;;;;;;;;5018128;28;20204;-82
2022/04/08 03:10:41;;;;;;;4.57;2.70;;;;;;;;;;5018205;28;20380;-82
2022/04/08 03:13:08;;;;;;;7.23;2.77;;;;;;;;;;5019220;28;20300;-82
2022/04/08 03:15:35;;;;;;;6.67;1.93;;;;;;;;;;5018083;28;20234;-82
2022/04/08 03:18:02;;;;;;;4.70;2.13;;;;;;;;;;5018913;28;20196;-82
2022/04/08 03:20:29;;;;;;;9.53;2.50;;;;;;;;;;5017936;28;20228;-82
2022/04/08 03:22:56;;;;;;;5.50;2.40;;;;;;;;;;5018692;28;20196;-82
2022/04/08 03:25:24;;;;;;;6.90;3.30;;;;;;;;;;5017499;28;20223;-82
2022/04/08 03:27:51;;;;;;;16.23;2.40;;;;;;;;;;5016989;28;20222;-82
2022/04/08 03:30:18;;;;;;;7.63;2.27;;;;;;;;;;5016446;28;20232;-82
2022/04/08 03:32:45;;;;;;;5.10;2.20;;;;;;;;;;5017511;28;20207;-83
2022/04/08 03:35:13;;;;;;;6.97;2.73;;;;;;;;;;5016943;28;20236;-83
2022/04/08 03:37:40;;;;;;;7.63;2.53;;;;;;;;;;5018079;28;20195;-82
2022/04/08 03:40:08;;;;;;;5.73;2.47;;;;;;;;;;5017133;28;20230;-82
2022/04/08 03:42:36;;;;;;;6.17;2.87;;;;;;;;;;5018279;28;20208;-83
2022/04/08 03:45:04;;;;;;;5.50;2.53;;;;;;;;;;5017451;28;20249;-82
2022/04/08 03:47:32;;;;;;;3.03;2.00;;;;;;;;;;5017558;28;20214;-82
2022/04/08 03:49:59;;;;;;;4.57;2.10;;;;;;;;;;5016831;28;20232;-82
2022/04/08 03:52:29;;;;;;;6.47;2.73;;;;;;;;;;5017661;28;20210;-82
2022/04/08 03:54:57;;;;;;;8.53;2.60;;;;;;;;;;5017283;28;20228;-82
2022/04/08 03:57:24;;;;;;;5.63;2.10;;;;;;;;;;5016666;28;20215;-82
2022/04/08 03:59:52;;;;;;;7.40;2.50;;;;;;;;;;5015145;28;20247;-82
2022/04/08 04:02:20;;;;;;;5.13;1.90;;;;;;;;;;5028219;28;20187;-81
2022/04/08 04:04:47;;;;;;;4.10;1.90;;;;;;;;;;5048016;28;20226;-82
2022/04/08 04:07:14;;;;;;;2.00;1.90;;;;;;;;;;5038588;28;20218;-81
2022/04/08 04:09:41;;;;;;;2.13;1.73;;;;;;;;;;5036294;28;20202;-81
2022/04/08 04:12:09;;;;;;;2.47;2.10;;;;;;;;;;5028903;28;20223;-81
2022/04/08 04:14:36;;;;;;;3.10;2.10;;;;;;;;;;5029346;28;20223;-81
2022/04/08 04:17:05;;;;;;;3.53;1.73;;;;;;;;;;5022479;28;20207;-82
2022/04/08 04:19:32;;;;;;;4.00;2.10;;;;;;;;;;5043575;28;20191;-82
2022/04/08 04:21:59;;;;;;;2.30;2.17;;;;;;;;;;5046660;28;20230;-82
2022/04/08 04:24:27;;;;;;;5.73;2.20;;;;;;;;;;5036415;28;20263;-84
2022/04/08 04:26:54;;;;;;;3.50;1.90;;;;;;;;;;5027197;28;20699;-83
2022/04/08 04:29:21;;;;;;;2.13;1.93;;;;;;;;;;5017137;28;20207;-84
2022/04/08 04:31:48;;;;;;;4.20;2.37;;;;;;;;;;5022615;28;20249;-84
2022/04/08 04:34:16;;;;;;;4.10;2.07;;;;;;;;;;5015813;28;20274;-84
2022/04/08 04:36:44;;;;;;;3.00;1.87;;;;;;;;;;5020985;28;20236;-83
2022/04/08 04:39:11;;;;;;;1.67;1.60;;;;;;;;;;5017331;28;20207;-83
2022/04/08 04:41:38;;;;;;;5.97;2.20;;;;;;;;;;5037947;28;20226;-84
2022/04/08 04:44:06;;;;;;;3.87;2.30;;;;;;;;;;5038923;28;20755;-85
2022/04/08 04:46:33;;;;;;;3.53;2.50;;;;;;;;;;5039298;28;20660;-83
2022/04/08 04:49:00;;;;;;;5.30;2.40;;;;;;;;;;5037056;28;20195;-83
2022/04/08 04:51:30;;;;;;;4.77;2.27;;;;;;;;;;5035745;28;20237;-81
2022/04/08 04:53:57;;;;;;;4.07;2.50;;;;;;;;;;5035840;28;20206;-84
2022/04/08 04:56:25;;;;;;;5.80;2.50;;;;;;;;;;5034389;28;20245;-84
2022/04/08 04:58:52;;;;;;;4.10;2.03;;;;;;;;;;5032830;28;20245;-85
2022/04/08 05:01:19;;;;;;;3.00;1.90;;;;;;;;;;5033568;28;20226;-85
2022/04/08 05:03:46;;;;;;;4.23;2.00;;;;;;;;;;5020084;28;20203;-84
2022/04/08 05:06:14;;;;;;;3.90;1.80;;;;;;;;;;5014507;28;20234;-83
2022/04/08 05:08:42;;;;;;;10.00;3.00;;;;;;;;;;4999293;28;20228;-83
2022/04/08 05:11:09;;;;;;;7.33;2.80;;;;;;;;;;4994836;28;20236;-82
2022/04/08 05:13:36;;;;;;;7.50;2.40;;;;;;;;;;4996842;28;20212;-81
2022/04/08 05:16:03;;;;;;;8.13;2.33;;;;;;;;;;4999847;28;20240;-82
2022/04/08 05:18:31;;;;;;;6.70;2.43;;;;;;;;;;5027433;28;20214;-81
2022/04/08 05:20:58;;;;;;;9.40;2.53;;;;;;;;;;5042484;28;20241;-81
2022/04/08 05:23:28;;;;;;;9.17;2.30;;;;;;;;;;5042848;28;20219;-82
2022/04/08 05:25:57;;;;;;;5.93;2.30;;;;;;;;;;5040935;28;20234;-82
2022/04/08 05:28:24;;;;;;;10.83;2.70;;;;;;;;;;5041020;28;20195;-81
2022/04/08 05:30:51;;;;;;;6.67;2.50;;;;;;;;;;5039780;28;20234;-82
2022/04/08 05:33:18;;;;;;;11.17;3.00;;;;;;;;;;5036057;28;20199;-81
2022/04/08 05:35:45;;;;;;;4.73;2.43;;;;;;;;;;5021115;28;20716;-81
2022/04/08 05:38:12;;;;;;;3.83;2.40;;;;;;;;;;5014699;28;20759;-82
2022/04/08 05:40:40;;;;;;;7.97;2.87;;;;;;;;;;5030354;28;20231;-81
2022/04/08 05:43:08;;;;;;;5.30;2.30;;;;;;;;;;5039619;28;20237;-81
2022/04/08 05:45:35;;;;;;;8.93;2.63;;;;;;;;;;5045763;28;20234;-82
2022/04/08 05:48:06;;;;;;;9.10;2.57;;;;;;;;;;5037607;28;20289;-81
2022/04/08 05:50:34;;;;;;;4.83;2.57;;;;;;;;;;5033031;28;20238;-81
2022/04/08 05:53:01;;;;;;;6.13;2.40;;;;;;;;;;5021903;28;20207;-82
2022/04/08 05:55:28;;;;;;;8.23;2.90;;;;;;;;;;5024718;28;20243;-82
2022/04/08 05:57:56;;;;;;;6.30;2.70;;;;;;;;;;5019050;28;20211;-82
2022/04/08 06:00:25;;;;;;;4.27;2.97;;;;;;;;;;5036120;28;20235;-82
2022/04/08 06:02:55;;;;;;;3.33;2.10;;;;;;;;;;5039407;28;20214;-83
2022/04/08 06:05:22;;;;;;;3.77;2.37;;;;;;;;;;5037262;28;20246;-83
2022/04/08 06:07:51;;;;;;;6.23;2.47;;;;;;;;;;5039009;28;20289;-82
2022/04/08 06:10:18;;;;;;;7.00;2.13;;;;;;;;;;5037891;28;20237;-82
2022/04/08 06:12:46;;;;;;;9.03;2.97;;;;;;;;;;5037777;28;20236;-83
2022/04/08 06:15:13;;;;;;;4.43;2.30;;;;;;;;;;5036888;28;20235;-83
2022/04/08 06:17:42;;;;;;;9.43;3.00;;;;;;;;;;5038166;28;20218;-83
2022/04/08 06:20:10;;;;;;;12.83;3.00;;;;;;;;;;5036436;28;20234;-83
2022/04/08 06:22:39;;;;;;;6.40;2.30;;;;;;;;;;5036949;28;20238;-82
2022/04/08 06:25:07;;;;;;;3.23;1.93;;;;;;;;;;5037539;28;20238;-83
2022/04/08 06:27:34;;;;;;;9.30;2.33;;;;;;;;;;5037427;28;20210;-83
2022/04/08 06:30:01;;;;;;;6.20;2.63;;;;;;;;;;5032376;28;20211;-83
2022/04/08 06:32:28;;;;;;;10.10;2.87;;;;;;;;;;5017713;28;20718;-83
2022/04/08 06:34:56;;;;;;;4.67;2.80;;;;;;;;;;5015544;28;20595;-83
2022/04/08 06:37:28;;;;;;;5.93;2.70;;;;;;;;;;5017019;28;20215;-83
2022/04/08 06:39:55;;;;;;;8.20;2.73;;;;;;;;;;5016186;28;20192;-82
2022/04/08 06:42:23;;;;;;;3.53;2.10;;;;;;;;;;5018423;28;20227;-83
2022/04/08 06:44:50;;;;;;;5.43;2.50;;;;;;;;;;5020408;28;20297;-83
2022/04/08 06:47:17;;;;;;;7.30;2.70;;;;;;;;;;5018204;28;20218;-82
2022/04/08 06:49:46;;;;;;;6.67;3.40;;;;;;;;;;5019306;28;20218;-82
2022/04/08 06:52:15;;;;;;;4.07;1.97;;;;;;;;;;5017447;28;20301;-83
2022/04/08 06:54:42;;;;;;;6.20;2.80;;;;;;;;;;5016790;28;20233;-83
2022/04/08 06:57:09;;;;;;;10.53;2.90;;;;;;;;;;5017612;28;20227;-83
2022/04/08 06:59:37;;;;;;;8.93;2.70;;;;;;;;;;5017222;28;20211;-82
2022/04/08 07:02:04;;;;;;;7.37;2.63;;;;;;;;;;5016994;28;20242;-82
2022/04/08 07:04:31;;;;;;;9.33;2.60;;;;;;;;;;5016630;28;20265;-83
2022/04/08 07:06:58;;;;;;;7.40;2.57;;;;;;;;;;5015839;28;20238;-83
2022/04/08 07:09:29;;;;;;;9.63;2.70;;;;;;;;;;5020050;28;20210;-83
2022/04/08 07:11:56;;;;;;;4.53;2.20;;;;;;;;;;5036257;28;20294;-83
2022/04/08 07:14:23;;;;;;;8.23;2.73;;;;;;;;;;5038732;28;20281;-83
2022/04/08 07:16:50;;;;;;;4.17;2.20;;;;;;;;;;5037492;28;20226;-82
2022/04/08 07:19:17;;;;;;;6.87;2.90;;;;;;;;;;5044231;28;20203;-82
2022/04/08 07:21:44;;;;;;;8.57;2.40;;;;;;;;;;5029917;28;20238;-83
2022/04/08 07:24:11;;;;;;;7.73;2.67;;;;;;;;;;5014424;28;20231;-83
2022/04/08 07:26:40;;;;;;;8.07;2.50;;;;;;;;;;5015535;28;20232;-83
2022/04/08 07:29:07;;;;;;;7.57;2.60;;;;;;;;;;5016377;28;20210;-82
2022/04/08 07:31:36;;;;;;;8.77;2.50;;;;;;;;;;5016269;28;20235;-82
2022/04/08 07:34:03;;;;;;;6.33;2.50;;;;;;;;;;5016012;28;20888;-83
2022/04/08 07:36:30;;;;;;;9.13;2.47;;;;;;;;;;5015619;28;20743;-83
2022/04/08 07:38:57;;;;;;;6.43;3.00;;;;;;;;;;5016015;28;20203;-83
2022/04/08 07:41:24;;;;;;;3.97;2.37;;;;;;;;;;5015672;28;20237;-83
2022/04/08 07:43:52;;;;;;;7.07;2.93;;;;;;;;;;5017799;28;20207;-83
2022/04/08 07:46:19;;;;;;;5.53;2.53;;;;;;;;;;5016367;28;20239;-82
2022/04/08 07:48:46;;;;;;;8.70;2.93;;;;;;;;;;5015543;28;20214;-83
2022/04/08 07:51:13;;;;;;;4.27;2.40;;;;;;;;;;5015053;28;20235;-83
2022/04/08 07:53:40;;;;;;;7.90;2.83;;;;;;;;;;5015523;28;20211;-83
2022/04/08 07:56:08;;;;;;;15.33;4.27;;;;;;;;;;5014792;28;20239;-83
2022/04/08 07:58:35;;;;;;;8.13;3.53;;;;;;;;;;5015377;28;20208;-83
2022/04/08 08:01:03;;;;;;;6.37;2.43;;;;;;;;;;5014310;28;20711;-83
2022/04/08 08:03:33;;;;;;;6.00;3.23;;;;;;;;;;5015428;28;20223;-83
2022/04/08 08:06:00;;;;;;;10.53;3.63;;;;;;;;;;5014756;28;20611;-83
2022/04/08 08:08:27;;;;;;;12.70;2.97;;;;;;;;;;5014357;28;20226;-83
2022/04/08 08:10:55;;;;;;;11.70;3.17;;;;;;;;;;5013396;28;20246;-83
2022/04/08 08:13:22;;;;;;;2.83;2.27;;;;;;;;;;5013872;28;20207;-83
2022/04/08 08:15:50;;;;;;;11.73;3.63;;;;;;;;;;5014503;28;20243;-82
2022/04/08 08:18:19;;;;;;;6.13;2.90;;;;;;;;;;5014415;28;20303;-83
2022/04/08 08:20:47;;;;;;;9.67;3.23;;;;;;;;;;5006183;28;20250;-84
2022/04/08 08:23:14;;;;;;;7.80;3.20;;;;;;;;;;5014196;28;20202;-84
2022/04/08 08:25:42;;;;;;;8.37;3.03;;;;;;;;;;5025468;28;20231;-83
2022/04/08 08:28:09;;;;;;;6.20;2.83;;;;;;;;;;5000705;28;20261;-85
2022/04/08 08:30:38;;;;;;;7.47;3.03;;;;;;;;;;4993044;28;20286;-84
2022/04/08 08:33:06;;;;;;;7.97;3.47;;;;;;;;;;4993379;28;20228;-84
2022/04/08 08:35:35;;;;;;;7.43;2.97;;;;;;;;;;4998470;28;20248;-84
2022/04/08 08:38:02;;;;;;;5.47;2.43;;;;;;;;;;4994306;28;20660;-84
2022/04/08 08:40:32;;;;;;;8.27;3.20;;;;;;;;;;4993623;28;20786;-83
2022/04/08 08:42:59;;;;;;;7.97;3.60;;;;;;;;;;4994378;28;20208;-82
2022/04/08 08:45:29;;;;;;;13.33;3.73;;;;;;;;;;4993634;28;20243;-83
2022/04/08 08:48:00;;;;;;;6.97;3.00;;;;;;;;;;4995110;28;20280;-82
2022/04/08 08:50:27;;;;;;;4.47;2.73;;;;;;;;;;4994256;28;20242;-82
2022/04/08 08:52:55;;;;;;;8.20;3.30;;;;;;;;;;4994210;28;20236;-82
2022/04/08 08:55:23;;;;;;;3.13;2.07;;;;;;;;;;4993312;28;20231;-82
2022/04/08 08:57:51;;;;;;;5.87;3.50;;;;;;;;;;4993949;28;20677;-82
2022/04/08 09:00:19;;;;;;;3.83;2.63;;;;;;;;;;4994174;28;20759;-82
2022/04/08 09:02:48;;;;;;;6.53;3.60;;;;;;;;;;4998292;28;20211;-83
2022/04/08 09:05:16;;;;;;;6.83;3.23;;;;;;;;;;5023595;28;20728;-82
2022/04/08 09:07:43;;;;;;;5.73;2.87;;;;;;;;;;5034138;28;20210;-82
2022/04/08 09:10:12;;;;;;;6.10;2.73;;;;;;;;;;5032003;28;20230;-82
2022/04/08 09:12:39;;;;;;;5.40;2.90;;;;;;;;;;5001340;28;20222;-82
2022/04/08 09:15:09;;;;;;;8.20;3.10;;;;;;;;;;5012447;28;20235;-82
2022/04/08 09:17:36;;;;;;;10.83;3.40;;;;;;;;;;5013943;28;20269;-82
2022/04/08 09:20:05;;;;;;;9.53;3.43;;;;;;;;;;5020680;28;20247;-82
2022/04/08 09:22:33;;;;;;;5.80;3.33;;;;;;;;;;5020987;28;20234;-82
2022/04/08 09:25:08;;;;;;;5.73;3.00;;;;;;;;;;5011988;28;20238;-82
2022/04/08 09:27:36;;;;;;;6.23;2.63;;;;;;;;;;5014274;28;20207;-82
2022/04/08 09:30:04;;;;;;;4.90;2.63;;;;;;;;;;5012813;28;20239;-81
2022/04/08 09:32:31;;;;;;;5.30;2.80;;;;;;;;;;5013546;28;20246;-82
2022/04/08 09:34:58;;;;;;;6.47;2.40;;;;;;;;;;5012709;28;20238;-82
2022/04/08 09:37:26;;;;;;;6.00;2.50;;;;;;;;;;5014308;28;20203;-81
2022/04/08 09:39:54;;;;;;;6.37;2.57;;;;;;;;;;5012489;28;20617;-81
2022/04/08 09:42:21;;;;;;;5.10;2.67;;;;;;;;;;5013221;28;20214;-82
2022/04/08 09:44:51;;;;;;;4.20;2.40;;;;;;;;;;5013893;28;20285;-83
2022/04/08 09:47:18;;;;;;;7.60;2.90;;;;;;;;;;5013151;28;20214;-82
2022/04/08 09:49:45;;;;;;;4.33;2.03;;;;;;;;;;5013320;28;20743;-82
2022/04/08 09:52:12;;;;;;;6.53;2.40;;;;;;;;;;5015240;28;20223;-82
2022/04/08 09:54:41;;;;;;;5.20;2.33;;;;;;;;;;5013350;28;20227;-83
2022/04/08 09:57:12;;;;;;;6.30;2.10;;;;;;;;;;5013643;28;20623;-82
2022/04/08 09:59:40;;;;;;;6.43;2.80;;;;;;;;;;5015044;28;20207;-82
2022/04/08 10:02:08;;;;;;;3.87;2.07;;;;;;;;;;5013273;28;20228;-82
2022/04/08 10:04:35;;;;;;;2.37;2.00;;;;;;;;;;5040732;28;20219;-82
2022/04/08 10:07:05;;;;;;;7.43;2.53;;;;;;;;;;5042344;28;20215;-81
2022/04/08 10:09:34;;;;;;;8.57;2.60;;;;;;;;;;5047672;28;20190;-82
2022/04/08 10:12:09;;;;;;;6.63;2.37;;;;;;;;;;5044864;28;20221;-82
2022/04/08 10:14:39;;;;;;;7.40;2.53;;;;;;;;;;5048775;28;20209;-82
2022/04/08 10:17:06;;;;;;;4.67;2.50;;;;;;;;;;5053298;28;20243;-82
2022/04/08 10:19:35;;;;;;;6.77;2.77;;;;;;;;;;5045385;28;20208;-83
2022/04/08 10:22:02;;;;;;;7.20;2.93;;;;;;;;;;5040590;28;20231;-82
2022/04/08 10:24:30;;;;;;;5.87;2.40;;;;;;;;;;5046100;28;20231;-82
2022/04/08 10:26:58;;;;;;;5.33;2.60;;;;;;;;;;5028197;28;20227;-82
2022/04/08 10:29:25;;;;;;;4.57;2.90;;;;;;;;;;5043802;28;20207;-82
2022/04/08 10:31:56;;;;;;;8.80;2.60;;;;;;;;;;5035430;28;20226;-82
2022/04/08 10:34:24;;;;;;;4.80;2.50;;;;;;;;;;5025704;28;20234;-82
2022/04/08 10:36:53;;;;;;;4.60;2.23;;;;;;;;;;5039940;28;20242;-83
2022/04/08 10:39:21;;;;;;;4.53;2.40;;;;;;;;;;5034204;28;20225;-83
2022/04/08 10:41:49;;;;;;;5.67;2.80;;;;;;;;;;5036024;28;20261;-81
2022/04/08 10:44:16;;;;;;;5.53;3.43;;;;;;;;;;5035895;28;20226;-82
2022/04/08 10:46:50;;;;;;;4.77;2.60;;;;;;;;;;5036211;28;20706;-82
2022/04/08 10:49:17;;;;;;;7.00;2.80;;;;;;;;;;5036585;28;20213;-81
2022/04/08 10:51:45;;;;;;;7.63;3.07;;;;;;;;;;5036046;28;20246;-82
2022/04/08 10:54:14;;;;;;;8.57;3.00;;;;;;;;;;5036011;28;20231;-81
2022/04/08 10:56:41;;;;;;;2.23;2.13;;;;;;;;;;5036312;28;20741;-81
2022/04/08 10:59:09;;;;;;;3.97;2.77;;;;;;;;;;5036818;28;20718;-80
2022/04/08 11:01:45;;;;;;;3.60;2.30;;;;;;;;;;5037316;28;20250;-80
2022/04/08 11:04:12;;;;;;;3.60;2.13;;;;;;;;;;5035592;28;20230;-80
2022/04/08 11:06:39;;;;;;;3.00;2.10;;;;;;;;;;5036129;28;20245;-80
2022/04/08 11:09:07;;;;;;;2.60;2.10;;;;;;;;;;5035472;28;20207;-80
2022/04/08 11:11:36;;;;;;;6.30;2.20;;;;;;;;;;5034030;28;20738;-80
2022/04/08 11:14:03;;;;;;;3.10;2.43;;;;;;;;;;5034957;28;20987;-80
2022/04/08 11:16:32;;;;;;;5.63;2.83;;;;;;;;;;5035346;28;20704;-81
2022/04/08 11:18:59;;;;;;;5.33;3.10;;;;;;;;;;5036112;28;20218;-80
2022/04/08 11:21:28;;;;;;;5.13;3.30;;;;;;;;;;5034407;28;20993;-80
2022/04/08 11:23:59;;;;;;;6.13;4.17;;;;;;;;;;5034843;28;20210;-80
2022/04/08 11:26:27;;;;;;;6.97;2.70;;;;;;;;;;5034722;28;20242;-80
2022/04/08 11:28:56;;;;;;;4.33;2.50;;;;;;;;;;5037418;28;20250;-80
2022/04/08 11:31:23;;;;;;;2.63;2.40;;;;;;;;;;5037544;28;20234;-80
2022/04/08 11:33:50;;;;;;;7.13;3.03;;;;;;;;;;5036357;28;20287;-81
2022/04/08 11:36:22;;;;;;;4.30;2.80;;;;;;;;;;5034750;28;20230;-80
2022/04/08 11:38:49;;;;;;;3.30;2.53;;;;;;;;;;5034868;28;20538;-80
2022/04/08 11:41:20;;;;;;;3.07;2.60;;;;;;;;;;5034097;28;20237;-80
2022/04/08 11:43:48;;;;;;;3.03;2.20;;;;;;;;;;5035091;28;20213;-80
2022/04/08 11:46:16;;;;;;;3.07;2.53;;;;;;;;;;5034224;28;20317;-80
2022/04/08 11:48:44;;;;;;;3.57;2.20;;;;;;;;;;5033957;28;20233;-80
2022/04/08 11:51:11;;;;;;;3.13;2.50;;;;;;;;;;5037865;28;20243;-80
2022/04/08 11:53:45;;;;;;;4.20;2.10;;;;;;;;;;5035747;28;20707;-80
2022/04/08 11:56:13;;;;;;;3.13;2.50;;;;;;;;;;5035769;28;20239;-81
2022/04/08 11:58:40;;;;;;;3.27;2.20;;;;;;;;;;5036805;28;20206;-80
2022/04/08 12:01:08;;;;;;;3.47;2.20;;;;;;;;;;5026236;28;20240;-82
2022/04/08 12:03:40;;;;;;;6.00;3.00;;;;;;;;;;5016170;28;20203;-82
2022/04/08 12:06:07;;;;;;;3.63;2.63;;;;;;;;;;5016157;28;20243;-81
2022/04/08 12:08:34;;;;;;;4.53;2.33;;;;;;;;;;5017150;28;20329;-82
2022/04/08 12:11:01;;;;;;;2.60;2.10;;;;;;;;;;5017340;28;20242;-82
2022/04/08 12:13:29;;;;;;;2.47;2.27;;;;;;;;;;5016810;28;20286;-82
2022/04/08 12:15:57;;;;;;;2.77;2.00;;;;;;;;;;5020169;28;20243;-82
2022/04/08 12:18:25;;;;;;;3.10;2.30;;;;;;;;;;5024703;28;20212;-82
2022/04/08 12:20:54;;;;;;;3.50;2.20;;;;;;;;;;5022954;28;20235;-81
2022/04/08 12:23:22;;;;;;;2.83;2.10;;;;;;;;;;5020742;28;20207;-81
2022/04/08 12:25:52;;;;;;;3.33;1.97;;;;;;;;;;5019622;28;20239;-81
2022/04/08 12:28:19;;;;;;;2.07;1.90;;;;;;;;;;5019099;28;20207;-82
2022/04/08 12:30:47;;;;;;;5.17;2.63;;;;;;;;;;5022832;28;20235;-81
2022/04/08 12:33:14;;;;;;;1.80;1.70;;;;;;;;;;5019929;28;20254;-81
2022/04/08 12:35:41;;;;;;;1.93;1.83;;;;;;;;;;5018951;28;20246;-81
2022/04/08 12:38:10;;;;;;;3.90;1.80;;;;;;;;;;5019372;28;20211;-81
2022/04/08 12:40:38;;;;;;;1.70;1.60;;;;;;;;;;5022754;28;20280;-81
2022/04/08 12:43:06;;;;;;;1.77;1.67;;;;;;;;;;5011718;28;20235;-80
2022/04/08 12:45:33;;;;;;;1.40;1.40;;;;;;;;;;5022266;28;20273;-80
2022/04/08 12:48:00;;;;;;;1.47;1.10;;;;;;;;;;5034099;28;20226;-80
2022/04/08 12:50:28;;;;;;;1.43;1.43;;;;;;;;;;5032728;28;20242;-80
2022/04/08 12:52:55;;;;;;;1.50;1.40;;;;;;;;;;5033871;28;20226;-80
2022/04/08 12:55:23;;;;;;;1.70;1.60;;;;;;;;;;5032454;28;20238;-80
2022/04/08 12:57:50;;;;;;;1.60;1.50;;;;;;;;;;5033515;28;20214;-80
2022/04/08 13:00:18;;;;;;;1.20;1.20;;;;;;;;;;5031967;28;20227;-80
2022/04/08 13:02:46;;;;;;;1.73;1.30;;;;;;;;;;5033832;28;20203;-79
2022/04/08 13:05:13;;;;;;;1.50;1.40;;;;;;;;;;5033723;28;20691;-79
2022/04/08 13:07:41;;;;;;;2.53;1.53;;;;;;;;;;5034901;28;20277;-80
2022/04/08 13:10:09;;;;;;;1.50;1.40;;;;;;;;;;5032126;28;20231;-79
2022/04/08 13:12:38;;;;;;;1.43;1.40;;;;;;;;;;5033578;28;20198;-79
2022/04/08 13:15:05;;;;;;;1.27;1.23;;;;;;;;;;5033103;28;20275;-80
2022/04/08 13:17:33;;;;;;;1.40;1.30;;;;;;;;;;5034132;28;20222;-79
2022/04/08 13:20:00;;;;;;;1.60;1.50;;;;;;;;;;5032854;28;20218;-79
2022/04/08 13:22:27;;;;;;;2.97;2.40;;;;;;;;;;5033080;28;20206;-80
2022/04/08 13:24:55;;;;;;;1.70;1.60;;;;;;;;;;5032046;28;20239;-80
2022/04/08 13:27:22;;;;;;;1.23;1.20;;;;;;;;;;5032908;28;20213;-79
2022/04/08 13:29:50;;;;;;;1.20;1.20;;;;;;;;;;5032460;28;20558;-80
2022/04/08 13:32:18;;;;;;;1.30;1.30;;;;;;;;;;5032968;28;20210;-79
2022/04/08 13:34:45;;;;;;;1.20;1.20;;;;;;;;;;5032328;28;20330;-80
2022/04/08 13:37:12;;;;;;;1.20;1.20;;;;;;;;;;5032769;28;20209;-79
2022/04/08 13:39:39;;;;;;;1.00;1.00;;;;;;;;;;5032619;28;20215;-80
2022/04/08 13:42:06;;;;;;;1.23;1.23;;;;;;;;;;5032373;28;20238;-79
2022/04/08 13:44:34;;;;;;;1.30;1.30;;;;;;;;;;5022493;28;20238;-80
2022/04/08 13:47:02;;;;;;;1.30;1.30;;;;;;;;;;5029845;28;20239;-80
2022/04/08 13:49:29;;;;;;;1.90;1.80;;;;;;;;;;5032553;28;20202;-80
2022/04/08 13:51:56;;;;;;;1.10;1.10;;;;;;;;;;5032196;28;20321;-79
2022/04/08 13:54:23;;;;;;;1.10;1.10;;;;;;;;;;5033878;28;20252;-80
2022/04/08 13:56:50;;;;;;;1.43;1.20;;;;;;;;;;5033928;28;20241;-80
2022/04/08 13:59:17;;;;;;;1.30;1.30;;;;;;;;;;5032624;28;20476;-79
2022/04/08 14:01:44;;;;;;;1.30;1.30;;;;;;;;;;5029001;28;20231;-80
2022/04/08 14:04:13;;;;;;;1.30;1.30;;;;;;;;;;5012795;28;20731;-80
2022/04/08 14:06:40;;;;;;;1.20;1.20;;;;;;;;;;5012917;28;20719;-80
2022/04/08 14:09:07;;;;;;;1.17;1.17;;;;;;;;;;5012362;28;20207;-80
2022/04/08 14:11:35;;;;;;;1.73;1.63;;;;;;;;;;5014294;28;20243;-80
2022/04/08 14:14:02;;;;;;;1.40;1.40;;;;;;;;;;5015086;28;20643;-80
2022/04/08 14:16:30;;;;;;;1.50;1.40;;;;;;;;;;5017402;28;20235;-80
2022/04/08 14:18:57;;;;;;;1.50;1.50;;;;;;;;;;5014438;28;20212;-82
2022/04/08 14:21:25;;;;;;;2.10;1.33;;;;;;;;;;5010605;28;20234;-81
2022/04/08 14:23:53;;;;;;;1.27;1.27;;;;;;;;;;5041484;28;20203;-81
2022/04/08 14:26:20;;;;;;;1.37;1.27;;;;;;;;;;5042850;28;20241;-81
2022/04/08 14:28:47;;;;;;;1.20;1.20;;;;;;;;;;5036990;28;20212;-80
2022/04/08 14:31:14;;;;;;;1.10;1.10;;;;;;;;;;5032460;28;20380;-80
2022/04/08 14:33:41;;;;;;;1.20;1.20;;;;;;;;;;5035866;28;20228;-81
2022/04/08 14:36:09;;;;;;;1.20;1.20;;;;;;;;;;5041121;28;20245;-80
2022/04/08 14:38:37;;;;;;;1.20;1.20;;;;;;;;;;5025642;28;20207;-80
2022/04/08 14:41:07;;;;;;;1.20;1.20;;;;;;;;;;5006719;28;20315;-80
2022/04/08 14:43:34;;;;;;;1.17;1.17;;;;;;;;;;5034938;28;20188;-81
2022/04/08 14:46:01;;;;;;;1.10;1.10;;;;;;;;;;5039153;28;20246;-82